createdAt,value
2018-08-06T00:01:21.720Z,27.31
2018-08-06T00:03:52.065Z,27.18
2018-08-06T00:06:22.500Z,27.08
2018-08-06T00:08:52.852Z,26.33
2018-08-06T00:11:23.289Z,26.31
2018-08-06T00:13:53.587Z,26.65
2018-08-06T00:16:24.220Z,26.74
2018-08-06T00:18:54.537Z,26.57
2018-08-06T00:21:25.013Z,26.50
2018-08-06T00:23:55.312Z,26.42
2018-08-06T00:26:25.911Z,26.22
2018-08-06T00:28:56.233Z,26.37
2018-08-06T00:31:26.789Z,26.27
2018-08-06T00:33:57.084Z,25.67
2018-08-06T00:36:27.556Z,25.58
2018-08-06T00:38:57.792Z,25.67
2018-08-06T00:41:28.193Z,25.67
2018-08-06T00:43:58.534Z,25.39
2018-08-06T00:46:28.909Z,25.28
2018-08-06T00:48:59.294Z,25.55
2018-08-06T00:51:30.198Z,25.47
2018-08-06T00:54:00.917Z,25.76
2018-08-06T00:56:31.805Z,25.64
2018-08-06T00:59:02.054Z,25.57
2018-08-06T01:01:32.404Z,25.04
2018-08-06T01:04:02.765Z,24.65
2018-08-06T01:06:33.216Z,25.01
2018-08-06T01:09:03.794Z,25.36
2018-08-06T01:11:34.294Z,25.33
2018-08-06T01:14:04.820Z,25.27
2018-08-06T01:16:35.144Z,25.17
2018-08-06T01:19:05.794Z,25.20
2018-08-06T01:21:36.438Z,25.28
2018-08-06T01:24:06.842Z,25.07
2018-08-06T01:26:37.554Z,25.03
2018-08-06T01:29:07.869Z,25.10
2018-08-06T01:31:38.220Z,25.06
2018-08-06T01:34:08.613Z,24.97
2018-08-06T01:36:39.182Z,25.01
2018-08-06T01:39:12.363Z,24.86
2018-08-06T01:41:42.784Z,24.99
2018-08-06T01:44:13.102Z,24.98
2018-08-06T01:46:43.836Z,25.00
2018-08-06T01:49:14.193Z,25.02
2018-08-06T01:51:44.673Z,25.13
2018-08-06T01:54:14.934Z,24.87
2018-08-06T01:56:45.371Z,24.84
2018-08-06T01:59:15.620Z,24.92
2018-08-06T02:01:46.053Z,24.97
2018-08-06T02:04:16.445Z,24.77
2018-08-06T02:06:47.085Z,25.06
2018-08-06T02:09:17.356Z,24.82
2018-08-06T02:11:47.857Z,24.94
2018-08-06T02:14:18.169Z,24.90
2018-08-06T02:16:48.567Z,24.80
2018-08-06T02:19:19.836Z,24.76
2018-08-06T02:21:50.207Z,24.55
2018-08-06T02:24:21.088Z,24.39
2018-08-06T02:26:51.488Z,24.55
2018-08-06T02:29:21.904Z,24.51
2018-08-06T02:31:52.433Z,24.59
2018-08-06T02:34:22.866Z,24.36
2018-08-06T02:36:53.389Z,24.36
2018-08-06T02:39:23.724Z,24.45
2018-08-06T02:41:54.439Z,24.31
2018-08-06T02:44:24.830Z,24.31
2018-08-06T02:46:55.380Z,24.33
2018-08-06T02:49:25.661Z,24.36
2018-08-06T02:51:55.995Z,24.21
2018-08-06T02:54:26.297Z,24.46
2018-08-06T02:56:56.637Z,24.24
2018-08-06T02:59:27.171Z,24.51
2018-08-06T03:01:57.528Z,24.31
2018-08-06T03:04:27.914Z,24.38
2018-08-06T03:06:58.305Z,24.33
2018-08-06T03:09:28.800Z,24.37
2018-08-06T03:11:59.072Z,24.26
2018-08-06T03:14:29.358Z,24.33
2018-08-06T03:17:00.006Z,24.25
2018-08-06T03:19:30.493Z,24.09
2018-08-06T03:22:01.817Z,24.09
2018-08-06T03:24:32.212Z,24.01
2018-08-06T03:27:02.544Z,24.11
2018-08-06T03:29:33.168Z,23.90
2018-08-06T03:32:04.049Z,24.03
2018-08-06T03:34:34.446Z,23.75
2018-08-06T03:37:04.825Z,23.80
2018-08-06T03:39:35.178Z,23.84
2018-08-06T03:42:05.702Z,23.93
2018-08-06T03:44:35.960Z,23.92
2018-08-06T03:47:06.429Z,23.95
2018-08-06T03:49:36.806Z,23.93
2018-08-06T03:52:07.302Z,23.68
2018-08-06T03:54:37.604Z,23.70
2018-08-06T03:57:08.154Z,23.95
2018-08-06T03:59:38.506Z,23.99
2018-08-06T04:02:09.432Z,24.00
2018-08-06T04:04:39.969Z,24.22
2018-08-06T04:07:10.863Z,24.07
2018-08-06T04:09:41.564Z,24.48
2018-08-06T04:12:12.351Z,23.86
2018-08-06T04:14:43.065Z,24.20
2018-08-06T04:17:13.860Z,24.55
2018-08-06T04:19:44.529Z,24.55
2018-08-06T04:22:14.985Z,24.52
2018-08-06T04:24:45.276Z,24.53
2018-08-06T04:27:15.660Z,24.79
2018-08-06T04:29:45.881Z,24.71
2018-08-06T04:32:16.331Z,24.85
2018-08-06T04:34:47.045Z,24.85
2018-08-06T04:37:17.805Z,25.01
2018-08-06T04:39:48.460Z,25.33
2018-08-06T04:42:19.110Z,26.50
2018-08-06T04:44:49.793Z,27.09
2018-08-06T04:47:20.530Z,27.63
2018-08-06T04:49:51.241Z,27.69
2018-08-06T04:52:21.969Z,27.91
2018-08-06T04:54:52.946Z,27.62
2018-08-06T04:57:23.614Z,27.41
2018-08-06T04:59:54.324Z,27.26
2018-08-06T05:02:24.929Z,28.23
2018-08-06T05:04:58.132Z,29.12
2018-08-06T05:07:28.443Z,28.58
2018-08-06T05:09:59.265Z,29.05
2018-08-06T05:12:30.036Z,29.35
2018-08-06T05:15:00.696Z,29.42
2018-08-06T05:17:31.318Z,30.21
2018-08-06T05:20:02.346Z,29.77
2018-08-06T05:22:32.993Z,30.34
2018-08-06T05:25:03.781Z,30.90
2018-08-06T05:27:35.174Z,30.96
2018-08-06T05:30:08.505Z,31.01
2018-08-06T05:32:39.280Z,30.70
2018-08-06T05:35:10.941Z,31.08
2018-08-06T05:37:42.342Z,31.00
2018-08-06T05:40:12.748Z,30.60
2018-08-06T05:42:43.294Z,30.62
2018-08-06T05:45:13.972Z,30.73
2018-08-06T05:47:44.629Z,30.63
2018-08-06T05:50:15.445Z,30.88
2018-08-06T05:52:46.084Z,31.22
2018-08-06T05:55:16.857Z,31.15
2018-08-06T05:57:47.533Z,31.60
2018-08-06T06:00:19.717Z,31.34
2018-08-06T06:02:50.310Z,31.20
2018-08-06T06:05:21.033Z,31.66
2018-08-06T06:07:51.733Z,31.49
2018-08-06T06:10:22.688Z,31.80
2018-08-06T06:12:53.452Z,31.48
2018-08-06T06:15:24.465Z,32.10
2018-08-06T06:17:55.224Z,32.18
2018-08-06T06:20:26.002Z,32.54
2018-08-06T06:22:56.575Z,32.30
2018-08-06T06:25:27.937Z,32.43
2018-08-06T06:27:58.639Z,32.14
2018-08-06T06:30:29.693Z,32.59
2018-08-06T06:33:00.398Z,33.04
2018-08-06T06:35:31.281Z,32.85
2018-08-06T06:38:02.008Z,33.11
2018-08-06T06:40:33.709Z,33.56
2018-08-06T06:43:04.446Z,34.01
2018-08-06T06:45:35.388Z,33.48
2018-08-06T06:48:06.047Z,32.74
2018-08-06T06:50:37.032Z,32.82
2018-08-06T06:53:07.864Z,32.82
2018-08-06T06:55:38.598Z,33.63
2018-08-06T06:58:09.410Z,33.22
2018-08-06T07:00:40.598Z,32.72
2018-08-06T07:03:11.186Z,33.00
2018-08-06T07:05:42.873Z,33.27
2018-08-06T07:08:13.389Z,33.37
2018-08-06T07:10:44.188Z,33.70
2018-08-06T07:13:14.914Z,34.25
2018-08-06T07:15:45.693Z,34.05
2018-08-06T07:18:16.262Z,35.08
2018-08-06T07:20:47.134Z,34.04
2018-08-06T07:23:17.800Z,34.72
2018-08-06T07:25:50.029Z,34.39
2018-08-06T07:28:20.624Z,34.55
2018-08-06T07:30:51.157Z,34.93
2018-08-06T07:33:21.892Z,35.33
2018-08-06T07:35:52.798Z,34.89
2018-08-06T07:38:23.459Z,35.34
2018-08-06T07:40:54.489Z,35.77
2018-08-06T07:43:25.239Z,36.34
2018-08-06T07:45:55.937Z,35.33
2018-08-06T07:48:26.625Z,36.05
2018-08-06T07:50:57.699Z,35.57
2018-08-06T07:53:28.566Z,36.15
2018-08-06T07:56:00.413Z,36.81
2018-08-06T07:58:31.438Z,35.93
2018-08-06T08:01:02.419Z,36.70
2018-08-06T08:03:32.609Z,36.16
2018-08-06T08:06:04.809Z,36.47
2018-08-06T08:08:35.741Z,37.26
2018-08-06T08:11:06.746Z,36.37
2018-08-06T08:13:37.144Z,37.03
2018-08-06T08:16:08.161Z,37.19
2018-08-06T08:18:38.283Z,36.97
2018-08-06T08:21:09.210Z,37.47
2018-08-06T08:23:39.887Z,37.67
2018-08-06T08:26:10.689Z,37.75
2018-08-06T08:28:41.081Z,37.51
2018-08-06T08:31:11.655Z,37.69
2018-08-06T08:33:42.125Z,37.21
2018-08-06T08:36:12.553Z,38.05
2018-08-06T08:38:42.941Z,37.96
2018-08-06T08:41:13.469Z,38.78
2018-08-06T08:43:43.826Z,38.38
2018-08-06T08:46:14.329Z,38.70
2018-08-06T08:48:44.793Z,38.40
2018-08-06T08:51:15.249Z,38.97
2018-08-06T08:53:45.995Z,38.01
2018-08-06T08:56:16.176Z,38.55
2018-08-06T08:58:47.153Z,38.55
2018-08-06T09:01:17.625Z,39.40
2018-08-06T09:03:48.008Z,38.58
2018-08-06T09:06:18.745Z,39.39
2018-08-06T09:08:49.141Z,39.39
2018-08-06T09:11:20.004Z,38.50
2018-08-06T09:13:50.435Z,39.23
2018-08-06T09:16:20.961Z,39.95
2018-08-06T09:18:51.446Z,39.96
2018-08-06T09:21:22.011Z,40.10
2018-08-06T09:23:52.502Z,39.64
2018-08-06T09:26:23.279Z,39.16
2018-08-06T09:28:54.046Z,39.09
2018-08-06T09:31:24.863Z,39.99
2018-08-06T09:33:55.627Z,39.39
2018-08-06T09:36:26.422Z,40.99
2018-08-06T09:38:56.809Z,40.90
2018-08-06T09:41:28.181Z,40.56
2018-08-06T09:43:59.383Z,41.25
2018-08-06T09:46:30.457Z,40.96
2018-08-06T09:49:01.045Z,39.05
2018-08-06T09:51:31.915Z,39.12
2018-08-06T09:54:02.669Z,38.34
2018-08-06T09:56:33.153Z,37.68
2018-08-06T09:59:03.554Z,36.86
2018-08-06T10:01:39.082Z,35.98
2018-08-06T10:04:09.818Z,36.35
2018-08-06T10:06:41.700Z,36.87
2018-08-06T10:09:12.316Z,37.64
2018-08-06T10:11:42.697Z,38.74
2018-08-06T10:14:13.420Z,39.37
2018-08-06T10:16:44.279Z,40.32
2018-08-06T10:19:15.083Z,41.43
2018-08-06T10:21:45.889Z,40.14
2018-08-06T10:24:16.557Z,39.91
2018-08-06T10:26:47.537Z,40.69
2018-08-06T10:29:18.225Z,42.00
2018-08-06T10:31:48.965Z,40.75
2018-08-06T10:34:19.713Z,40.93
2018-08-06T10:36:50.533Z,40.92
2018-08-06T10:39:21.397Z,40.87
2018-08-06T10:41:52.158Z,40.06
2018-08-06T10:44:22.641Z,39.90
2018-08-06T10:46:53.463Z,40.31
2018-08-06T10:49:24.199Z,39.35
2018-08-06T10:51:54.816Z,40.10
2018-08-06T10:54:25.637Z,40.26
2018-08-06T10:56:56.677Z,39.91
2018-08-06T10:59:27.475Z,39.59
2018-08-06T11:01:58.158Z,39.15
2018-08-06T11:04:28.831Z,40.51
2018-08-06T11:06:59.854Z,39.13
2018-08-06T11:09:30.514Z,39.15
2018-08-06T11:12:01.237Z,39.24
2018-08-06T11:17:07.886Z,39.50
2018-08-06T11:19:38.540Z,40.25
2018-08-06T11:22:09.524Z,40.38
2018-08-06T11:24:40.106Z,40.22
2018-08-06T11:27:11.272Z,40.12
2018-08-06T11:29:41.901Z,39.61
2018-08-06T11:32:12.557Z,39.93
2018-08-06T11:34:43.218Z,39.64
2018-08-06T11:37:13.966Z,40.05
2018-08-06T11:39:44.605Z,40.50
2018-08-06T11:42:15.397Z,39.11
2018-08-06T11:44:46.163Z,38.22
2018-08-06T11:47:16.841Z,38.78
2018-08-06T11:49:47.489Z,39.61
2018-08-06T11:52:18.541Z,39.63
2018-08-06T11:54:49.133Z,40.01
2018-08-06T11:57:20.355Z,39.13
2018-08-06T11:59:51.003Z,39.03
2018-08-06T12:02:21.792Z,37.65
2018-08-06T12:04:52.269Z,37.70
2018-08-06T12:07:23.154Z,37.27
2018-08-06T12:09:53.825Z,36.75
2018-08-06T12:12:24.665Z,36.87
2018-08-06T12:14:55.386Z,37.98
2018-08-06T12:17:26.418Z,37.38
2018-08-06T12:19:57.074Z,38.33
2018-08-06T12:22:27.855Z,38.25
2018-08-06T12:24:58.526Z,38.25
2018-08-06T12:27:29.396Z,38.85
2018-08-06T12:30:05.202Z,37.97
2018-08-06T12:32:36.191Z,37.93
2018-08-06T12:35:07.518Z,37.39
2018-08-06T12:37:38.324Z,38.27
2018-08-06T12:40:13.364Z,38.86
2018-08-06T12:42:44.313Z,40.07
2018-08-06T12:45:15.954Z,40.91
2018-08-06T12:47:47.134Z,40.90
2018-08-06T12:50:18.408Z,39.80
2018-08-06T12:52:49.366Z,40.04
2018-08-06T12:55:20.121Z,39.44
2018-08-06T12:57:50.905Z,39.78
2018-08-06T13:00:24.940Z,39.53
2018-08-06T13:02:56.177Z,39.31
2018-08-06T13:05:26.770Z,40.46
2018-08-06T13:07:57.679Z,40.46
2018-08-06T13:10:28.517Z,41.44
2018-08-06T13:12:59.290Z,40.20
2018-08-06T13:15:29.910Z,41.72
2018-08-06T13:18:00.717Z,39.82
2018-08-06T13:20:31.466Z,39.65
2018-08-06T13:23:01.949Z,40.43
2018-08-06T13:25:32.524Z,40.89
2018-08-06T13:28:04.585Z,40.19
2018-08-06T13:30:35.374Z,39.61
2018-08-06T13:33:06.301Z,38.68
2018-08-06T13:35:37.073Z,37.95
2018-08-06T13:38:08.674Z,38.27
2018-08-06T13:40:39.525Z,37.89
2018-08-06T13:43:11.129Z,38.25
2018-08-06T13:45:41.781Z,40.33
2018-08-06T13:48:13.363Z,40.01
2018-08-06T13:50:43.869Z,39.58
2018-08-06T13:53:14.710Z,40.60
2018-08-06T13:55:45.379Z,40.32
2018-08-06T13:58:16.031Z,41.05
2018-08-06T14:00:46.698Z,41.73
2018-08-06T14:03:17.605Z,40.49
2018-08-06T14:05:48.263Z,41.72
2018-08-06T14:08:19.188Z,41.38
2018-08-06T14:10:50.133Z,41.28
2018-08-06T14:13:20.925Z,40.54
2018-08-06T14:15:51.618Z,41.03
2018-08-06T14:18:22.391Z,41.13
2018-08-06T14:20:53.118Z,40.27
2018-08-06T14:23:23.530Z,40.80
2018-08-06T14:25:54.296Z,40.77
2018-08-06T14:28:25.121Z,40.52
2018-08-06T14:30:55.869Z,40.89
2018-08-06T14:33:26.993Z,40.85
2018-08-06T14:35:57.710Z,41.88
2018-08-06T14:38:28.498Z,41.49
2018-08-06T14:40:59.009Z,40.78
2018-08-06T14:43:29.691Z,40.60
2018-08-06T14:46:00.473Z,40.66
2018-08-06T14:48:31.161Z,41.02
2018-08-06T14:51:01.781Z,40.61
2018-08-06T14:53:32.571Z,40.33
2018-08-06T14:56:03.441Z,40.47
2018-08-06T14:58:34.368Z,39.78
2018-08-06T15:01:05.153Z,39.56
2018-08-06T15:03:35.988Z,38.61
2018-08-06T15:06:06.851Z,38.52
2018-08-06T15:08:37.514Z,38.81
2018-08-06T15:11:08.282Z,38.47
2018-08-06T15:13:39.089Z,38.51
2018-08-06T15:16:09.798Z,38.16
2018-08-06T15:18:40.863Z,38.06
2018-08-06T15:21:11.505Z,37.97
2018-08-06T15:23:42.318Z,37.74
2018-08-06T15:26:13.393Z,37.38
2018-08-06T15:28:44.053Z,37.61
2018-08-06T15:31:14.305Z,37.69
2018-08-06T15:33:45.268Z,37.65
2018-08-06T15:36:15.883Z,37.04
2018-08-06T15:38:46.388Z,36.97
2018-08-06T15:41:17.152Z,36.95
2018-08-06T15:43:47.852Z,37.11
2018-08-06T15:46:18.155Z,36.41
2018-08-06T15:48:48.646Z,36.36
2018-08-06T15:51:19.021Z,36.51
2018-08-06T15:53:49.697Z,36.72
2018-08-06T15:56:20.325Z,36.76
2018-08-06T15:58:51.111Z,36.53
2018-08-06T16:01:21.363Z,36.56
2018-08-06T16:03:51.821Z,36.47
2018-08-06T16:06:22.155Z,36.11
2018-08-06T16:08:52.468Z,36.02
2018-08-06T16:11:22.945Z,35.70
2018-08-06T16:13:53.601Z,36.24
2018-08-06T16:16:23.852Z,36.22
2018-08-06T16:18:54.437Z,36.26
2018-08-06T16:21:24.838Z,36.15
2018-08-06T16:23:55.253Z,36.03
2018-08-06T16:26:26.069Z,36.06
2018-08-06T16:28:56.883Z,36.04
2018-08-06T16:31:27.615Z,36.09
2018-08-06T16:33:58.541Z,36.18
2018-08-06T16:36:28.822Z,36.04
2018-08-06T16:38:59.185Z,35.77
2018-08-06T16:41:29.912Z,35.63
2018-08-06T16:44:00.536Z,35.24
2018-08-06T16:46:30.891Z,35.03
2018-08-06T16:49:01.641Z,34.83
2018-08-06T16:51:32.128Z,34.79
2018-08-06T16:54:02.809Z,34.63
2018-08-06T16:56:33.343Z,34.61
2018-08-06T16:59:03.660Z,34.15
2018-08-06T17:01:34.029Z,34.19
2018-08-06T17:04:04.700Z,34.12
2018-08-06T17:06:35.268Z,33.97
2018-08-06T17:09:07.629Z,33.87
2018-08-06T17:11:38.032Z,33.61
2018-08-06T17:14:08.832Z,33.30
2018-08-06T17:16:39.601Z,33.31
2018-08-06T17:19:10.339Z,33.20
2018-08-06T17:21:41.242Z,33.11
2018-08-06T17:24:11.961Z,32.96
2018-08-06T17:26:42.724Z,32.84
2018-08-06T17:29:13.065Z,32.68
2018-08-06T17:31:43.485Z,32.64
2018-08-06T17:34:13.871Z,32.60
2018-08-06T17:36:44.136Z,32.47
2018-08-06T17:39:15.004Z,32.10
2018-08-06T17:41:45.692Z,32.18
2018-08-06T17:44:16.485Z,32.02
2018-08-06T17:46:51.185Z,31.97
2018-08-06T17:49:21.572Z,32.00
2018-08-06T17:51:51.972Z,31.78
2018-08-06T17:54:22.341Z,31.78
2018-08-06T17:56:52.600Z,31.71
2018-08-06T17:59:23.085Z,31.57
2018-08-06T18:01:53.394Z,31.73
2018-08-06T18:04:24.287Z,31.61
2018-08-06T18:06:54.997Z,31.63
2018-08-06T18:09:25.833Z,31.44
2018-08-06T18:11:56.437Z,31.37
2018-08-06T18:14:27.230Z,31.32
2018-08-06T18:16:57.720Z,31.24
2018-08-06T18:19:28.661Z,31.13
2018-08-06T18:21:59.344Z,31.02
2018-08-06T18:24:30.041Z,30.86
2018-08-06T18:27:00.732Z,30.73
2018-08-06T18:29:31.368Z,30.64
2018-08-06T18:32:02.151Z,30.50
2018-08-06T18:34:33.091Z,30.45
2018-08-06T18:37:03.676Z,30.27
2018-08-06T18:39:34.509Z,30.18
2018-08-06T18:42:05.005Z,30.11
2018-08-06T18:44:35.518Z,30.09
2018-08-06T18:47:06.669Z,29.98
2018-08-06T18:49:38.430Z,29.96
2018-08-06T18:52:09.184Z,29.79
2018-08-06T18:54:40.237Z,29.67
2018-08-06T18:57:10.888Z,29.69
2018-08-06T18:59:41.653Z,29.73
2018-08-06T19:02:12.350Z,29.60
2018-08-06T19:04:43.177Z,29.57
2018-08-06T19:07:13.488Z,29.35
2018-08-06T19:09:44.384Z,29.29
2018-08-06T19:12:19.709Z,29.28
2018-08-06T19:14:50.772Z,29.22
2018-08-06T19:17:21.425Z,29.18
2018-08-06T19:19:52.322Z,29.13
2018-08-06T19:22:22.670Z,29.08
2018-08-06T19:24:58.073Z,29.08
2018-08-06T19:27:28.793Z,28.92
2018-08-06T19:29:59.943Z,28.86
2018-08-06T19:32:30.276Z,28.97
2018-08-06T19:35:00.778Z,28.88
2018-08-06T19:37:36.248Z,28.85
2018-08-06T19:40:08.510Z,28.81
2018-08-06T19:42:43.855Z,28.63
2018-08-06T19:45:14.092Z,28.70
2018-08-06T19:47:44.476Z,28.73
2018-08-06T19:50:20.339Z,28.62
2018-08-06T19:52:50.810Z,28.57
2018-08-06T19:55:26.472Z,28.54
2018-08-06T19:57:56.993Z,28.40
2018-08-06T20:00:27.569Z,28.47
2018-08-06T20:02:58.188Z,28.56
2018-08-06T20:05:28.791Z,28.39
2018-08-06T20:07:59.133Z,28.43
2018-08-06T20:10:30.193Z,28.34
2018-08-06T20:13:00.560Z,28.32
2018-08-06T20:15:31.335Z,28.16
2018-08-06T20:18:01.774Z,27.64
2018-08-06T20:20:32.072Z,26.91
2018-08-06T20:23:02.454Z,27.05
2018-08-06T20:25:32.896Z,27.32
2018-08-06T20:28:03.296Z,27.59
2018-08-06T20:30:34.234Z,27.71
2018-08-06T20:33:04.199Z,27.56
2018-08-06T20:35:34.764Z,27.49
2018-08-06T20:38:05.179Z,27.51
2018-08-06T20:40:35.601Z,27.64
2018-08-06T20:43:06.033Z,27.63
2018-08-06T20:45:36.471Z,27.54
2018-08-06T20:48:07.732Z,27.50
2018-08-06T20:50:38.169Z,27.48
2018-08-06T20:53:08.581Z,27.44
2018-08-06T20:55:39.029Z,27.77
2018-08-06T20:58:09.429Z,27.81
2018-08-06T21:00:39.829Z,27.16
2018-08-06T21:03:10.097Z,27.33
2018-08-06T21:05:40.476Z,27.36
2018-08-06T21:08:10.965Z,27.69
2018-08-06T21:10:41.712Z,27.67
2018-08-06T21:13:12.124Z,27.49
2018-08-06T21:15:42.637Z,27.33
2018-08-06T21:18:13.017Z,27.56
2018-08-06T21:20:43.673Z,27.63
2018-08-06T21:23:13.996Z,27.67
2018-08-06T21:25:44.633Z,27.43
2018-08-06T21:28:15.054Z,27.39
2018-08-06T21:30:45.619Z,27.50
2018-08-06T21:33:16.019Z,27.28
2018-08-06T21:35:46.808Z,27.50
2018-08-06T21:38:17.164Z,27.37
2018-08-06T21:40:47.564Z,27.31
2018-08-06T21:43:17.896Z,27.54
2018-08-06T21:45:48.312Z,27.82
2018-08-06T21:48:18.667Z,27.93
2018-08-06T21:50:50.329Z,28.27
2018-08-06T21:53:21.296Z,28.10
2018-08-06T21:55:51.765Z,28.22
2018-08-06T21:58:22.070Z,27.85
2018-08-06T22:00:52.718Z,28.03
2018-08-06T22:03:23.099Z,28.05
2018-08-06T22:05:53.393Z,27.91
2018-08-06T22:08:23.729Z,28.00
2018-08-06T22:10:54.152Z,27.92
2018-08-06T22:13:24.613Z,27.66
2018-08-06T22:15:55.137Z,27.54
2018-08-06T22:18:25.497Z,27.39
2018-08-06T22:20:56.043Z,27.45
2018-08-06T22:23:26.458Z,27.52
2018-08-06T22:25:57.052Z,27.61
2018-08-06T22:28:27.309Z,27.60
2018-08-06T22:30:57.798Z,27.26
2018-08-06T22:33:28.093Z,27.10
2018-08-06T22:35:58.530Z,27.32
2018-08-06T22:38:28.868Z,27.08
2018-08-06T22:40:59.233Z,26.91
2018-08-06T22:43:29.541Z,26.90
2018-08-06T22:45:59.969Z,26.95
2018-08-06T22:48:30.248Z,27.17
2018-08-06T22:51:00.627Z,26.92
2018-08-06T22:53:31.158Z,27.04
2018-08-06T22:56:06.754Z,27.04
2018-08-06T22:58:38.006Z,27.11
2018-08-06T23:01:10.864Z,27.16
2018-08-06T23:03:41.160Z,26.94
2018-08-06T23:06:11.565Z,26.77
2018-08-06T23:08:41.871Z,26.57
2018-08-06T23:11:12.496Z,26.57
2018-08-06T23:13:42.861Z,26.93
2018-08-06T23:16:14.869Z,27.03
2018-08-06T23:18:45.172Z,26.93
2018-08-06T23:21:15.509Z,26.93
2018-08-06T23:23:45.880Z,26.70
2018-08-06T23:26:16.496Z,26.76
2018-08-06T23:28:46.889Z,26.65
2018-08-06T23:31:18.221Z,26.52
2018-08-06T23:33:48.517Z,26.23
2018-08-06T23:36:18.977Z,26.08
2018-08-06T23:38:49.291Z,26.19
2018-08-06T23:41:19.664Z,26.32
2018-08-06T23:43:49.924Z,26.19
2018-08-06T23:46:20.267Z,26.14
2018-08-06T23:48:50.566Z,26.13
2018-08-06T23:51:21.317Z,26.12
2018-08-06T23:53:51.653Z,25.80
2018-08-06T23:56:22.097Z,25.72
2018-08-06T23:58:52.336Z,25.83
